createdAt,value
2023-05-09T00:00:11.002Z,62.90
2023-05-09T00:02:39.883Z,63.00
2023-05-09T00:05:10.005Z,62.90
2023-05-09T00:07:39.077Z,62.90
2023-05-09T00:10:10.337Z,62.90
2023-05-09T00:12:39.270Z,62.90
2023-05-09T00:15:10.652Z,62.90
2023-05-09T00:17:40.062Z,62.90
2023-05-09T00:20:12.437Z,62.90
2023-05-09T00:22:41.939Z,63.00
2023-05-09T00:25:12.760Z,63.00
2023-05-09T00:27:41.344Z,63.70
2023-05-09T00:30:12.512Z,62.80
2023-05-09T00:32:41.580Z,62.90
2023-05-09T00:35:11.226Z,62.80
2023-05-09T00:37:39.663Z,62.90
2023-05-09T00:40:09.590Z,62.90
2023-05-09T00:42:39.390Z,62.90
2023-05-09T00:45:09.775Z,62.90
2023-05-09T00:47:40.261Z,62.90
2023-05-09T00:50:11.173Z,62.90
2023-05-09T00:52:40.420Z,62.90
2023-05-09T00:55:10.188Z,63.70
2023-05-09T00:57:38.708Z,62.90
2023-05-09T01:00:13.656Z,62.90
2023-05-09T01:02:46.647Z,63.00
2023-05-09T01:05:16.126Z,63.00
2023-05-09T01:07:52.110Z,63.10
2023-05-09T01:10:38.934Z,62.90
2023-05-09T01:13:14.150Z,62.90
2023-05-09T01:15:51.119Z,62.90
2023-05-09T01:18:27.424Z,62.90
2023-05-09T01:21:04.070Z,62.90
2023-05-09T01:24:02.861Z,62.90
2023-05-09T01:26:46.184Z,62.90
2023-05-09T01:29:35.255Z,62.80
2023-05-09T01:32:09.002Z,62.80
2023-05-09T01:34:41.329Z,63.70
2023-05-09T01:37:10.940Z,62.80
2023-05-09T01:39:43.975Z,62.80
2023-05-09T01:42:14.792Z,62.80
2023-05-09T01:44:47.827Z,62.80
2023-05-09T01:47:18.153Z,62.80
2023-05-09T01:49:49.227Z,62.90
2023-05-09T01:52:20.265Z,62.90
2023-05-09T01:54:50.183Z,62.90
2023-05-09T01:57:20.144Z,62.90
2023-05-09T01:59:50.940Z,63.00
2023-05-09T02:02:19.860Z,63.10
2023-05-09T02:04:49.502Z,63.00
2023-05-09T02:07:18.775Z,63.00
2023-05-09T02:09:48.444Z,63.10
2023-05-09T02:12:17.458Z,63.10
2023-05-09T02:14:45.886Z,63.10
2023-05-09T02:17:17.084Z,63.10
2023-05-09T02:19:45.971Z,63.10
2023-05-09T02:22:15.696Z,63.10
2023-05-09T02:24:45.664Z,63.20
2023-05-09T02:27:15.611Z,63.20
2023-05-09T02:29:49.137Z,63.20
2023-05-09T02:32:25.693Z,63.10
2023-05-09T02:34:55.965Z,63.20
2023-05-09T02:37:26.795Z,63.20
2023-05-09T02:39:56.072Z,63.20
2023-05-09T02:42:28.727Z,63.20
2023-05-09T02:44:58.132Z,63.20
2023-05-09T02:47:28.393Z,63.20
2023-05-09T02:49:56.759Z,63.30
2023-05-09T02:52:25.205Z,63.30
2023-05-09T02:54:54.080Z,63.30
2023-05-09T02:57:22.861Z,63.30
2023-05-09T02:59:51.252Z,63.30
2023-05-09T03:02:20.315Z,63.30
2023-05-09T03:04:50.602Z,63.30
2023-05-09T03:07:19.487Z,63.40
2023-05-09T03:09:47.832Z,63.50
2023-05-09T03:12:16.655Z,63.50
2023-05-09T03:14:45.058Z,63.60
2023-05-09T03:17:17.205Z,63.60
2023-05-09T03:19:46.099Z,63.60
2023-05-09T03:22:16.874Z,63.70
2023-05-09T03:24:54.273Z,63.70
2023-05-09T03:27:22.700Z,63.70
2023-05-09T03:29:52.318Z,63.80
2023-05-09T03:32:22.096Z,63.90
2023-05-09T03:34:50.757Z,63.90
2023-05-09T03:37:20.618Z,64.00
2023-05-09T03:39:49.177Z,64.10
2023-05-09T03:42:18.122Z,64.10
2023-05-09T03:44:49.727Z,64.20
2023-05-09T03:47:21.357Z,64.30
2023-05-09T03:49:50.036Z,64.30
2023-05-09T03:52:24.402Z,64.30
2023-05-09T03:54:53.105Z,64.40
2023-05-09T03:57:21.886Z,64.30
2023-05-09T03:59:53.213Z,64.30
2023-05-09T04:02:22.167Z,64.40
2023-05-09T04:04:51.037Z,64.50
2023-05-09T04:07:23.820Z,64.50
2023-05-09T04:09:53.098Z,65.30
2023-05-09T04:12:22.721Z,64.60
2023-05-09T04:14:52.061Z,64.60
2023-05-09T04:17:21.091Z,64.60
2023-05-09T04:19:49.549Z,64.80
2023-05-09T04:22:18.197Z,64.70
2023-05-09T04:24:48.715Z,64.70
2023-05-09T04:27:17.542Z,64.90
2023-05-09T04:29:45.970Z,64.90
2023-05-09T04:32:15.745Z,65.00
2023-05-09T04:34:44.401Z,65.00
2023-05-09T04:37:19.361Z,65.00
2023-05-09T04:39:50.338Z,65.10
2023-05-09T04:42:25.757Z,65.10
2023-05-09T04:44:54.205Z,65.10
2023-05-09T04:47:23.700Z,65.10
2023-05-09T04:49:52.080Z,65.20
2023-05-09T04:52:20.909Z,65.20
2023-05-09T04:54:51.009Z,65.20
2023-05-09T04:57:22.844Z,65.40
2023-05-09T04:59:57.441Z,65.30
2023-05-09T05:02:26.177Z,65.40
2023-05-09T05:05:06.203Z,65.50
2023-05-09T05:07:45.548Z,65.50
2023-05-09T05:10:21.261Z,65.60
2023-05-09T05:12:54.843Z,65.60
2023-05-09T05:15:23.358Z,65.60
2023-05-09T05:17:52.349Z,65.60
2023-05-09T05:20:23.765Z,65.80
2023-05-09T05:22:52.936Z,65.80
2023-05-09T05:25:23.683Z,65.80
2023-05-09T05:27:54.058Z,65.80
2023-05-09T05:30:22.792Z,65.80
2023-05-09T05:32:51.692Z,65.80
2023-05-09T05:35:23.437Z,65.80
2023-05-09T05:37:53.140Z,65.80
2023-05-09T05:40:24.538Z,65.80
2023-05-09T05:42:55.557Z,65.80
2023-05-09T05:45:25.302Z,65.80
2023-05-09T05:47:56.651Z,65.80
2023-05-09T05:50:26.100Z,65.80
2023-05-09T05:52:55.347Z,65.80
2023-05-09T05:55:26.605Z,65.90
2023-05-09T05:57:55.110Z,66.10
2023-05-09T06:00:23.634Z,66.10
2023-05-09T06:02:59.700Z,66.20
2023-05-09T06:05:43.460Z,66.20
2023-05-09T06:08:12.819Z,66.30
2023-05-09T06:10:42.961Z,66.20
2023-05-09T06:13:12.889Z,66.30
2023-05-09T06:15:45.633Z,66.30
2023-05-09T06:18:14.356Z,66.30
2023-05-09T06:20:42.703Z,66.30
2023-05-09T06:23:11.167Z,66.30
2023-05-09T06:25:39.972Z,66.30
2023-05-09T06:28:10.121Z,66.40
2023-05-09T06:30:38.930Z,66.40
2023-05-09T06:33:07.430Z,66.40
2023-05-09T06:35:36.074Z,66.60
2023-05-09T06:38:04.420Z,66.60
2023-05-09T06:40:32.756Z,66.60
2023-05-09T06:43:01.426Z,66.80
2023-05-09T06:45:31.746Z,66.90
2023-05-09T06:48:00.191Z,67.10
2023-05-09T06:50:29.794Z,67.10
2023-05-09T06:53:00.443Z,67.10
2023-05-09T06:55:28.940Z,67.30
2023-05-09T06:57:57.358Z,67.30
2023-05-09T07:00:25.780Z,67.20
2023-05-09T07:02:56.367Z,67.20
2023-05-09T07:05:24.937Z,67.30
2023-05-09T07:07:55.020Z,67.20
2023-05-09T07:10:23.604Z,67.30
2023-05-09T07:12:52.119Z,67.30
2023-05-09T07:15:32.469Z,67.40
2023-05-09T07:18:10.227Z,67.40
2023-05-09T07:20:38.827Z,67.40
2023-05-09T07:23:08.203Z,67.50
2023-05-09T07:25:36.873Z,67.40
2023-05-09T07:28:05.754Z,67.50
2023-05-09T07:30:34.155Z,67.30
2023-05-09T07:33:02.707Z,67.40
2023-05-09T07:35:32.530Z,67.20
2023-05-09T07:38:00.819Z,67.30
2023-05-09T07:40:29.175Z,67.30
2023-05-09T07:42:58.708Z,67.20
2023-05-09T07:45:27.169Z,67.20
2023-05-09T07:47:55.910Z,67.10
2023-05-09T07:50:24.314Z,67.20
2023-05-09T07:52:55.641Z,67.10
2023-05-09T07:55:24.155Z,67.10
2023-05-09T07:57:52.890Z,67.10
2023-05-09T08:00:23.858Z,67.10
2023-05-09T08:02:52.943Z,67.20
2023-05-09T08:05:21.494Z,66.80
2023-05-09T08:07:50.337Z,66.80
2023-05-09T08:10:23.199Z,66.70
2023-05-09T08:12:51.755Z,66.70
2023-05-09T08:15:20.223Z,66.80
2023-05-09T08:17:48.811Z,67.10
2023-05-09T08:20:17.448Z,67.30
2023-05-09T08:22:46.060Z,67.40
2023-05-09T08:25:16.696Z,67.20
2023-05-09T08:27:46.724Z,67.00
2023-05-09T08:30:16.531Z,67.50
2023-05-09T08:32:45.237Z,66.60
2023-05-09T08:35:14.273Z,66.30
2023-05-09T08:37:43.357Z,66.20
2023-05-09T08:40:12.598Z,66.10
2023-05-09T08:42:44.341Z,66.00
2023-05-09T08:45:16.569Z,66.10
2023-05-09T08:47:46.795Z,66.40
2023-05-09T08:50:17.488Z,66.30
2023-05-09T08:52:46.473Z,66.10
2023-05-09T08:55:16.117Z,66.00
2023-05-09T08:57:44.751Z,65.70
2023-05-09T09:00:20.136Z,65.70
2023-05-09T09:02:49.842Z,65.30
2023-05-09T09:05:39.491Z,65.50
2023-05-09T09:08:09.120Z,65.40
2023-05-09T09:10:41.092Z,65.40
2023-05-09T09:13:11.878Z,65.20
2023-05-09T09:15:45.233Z,65.00
2023-05-09T09:18:18.299Z,64.80
2023-05-09T09:20:51.334Z,64.70
2023-05-09T09:23:21.691Z,64.60
2023-05-09T09:25:50.446Z,64.60
2023-05-09T09:28:19.255Z,64.70
2023-05-09T09:30:50.802Z,64.70
2023-05-09T09:33:23.551Z,64.70
2023-05-09T09:35:53.311Z,64.70
2023-05-09T09:38:22.912Z,64.80
2023-05-09T09:40:56.365Z,64.80
2023-05-09T09:43:30.100Z,64.50
2023-05-09T09:46:03.654Z,64.10
2023-05-09T09:48:35.054Z,64.10
2023-05-09T09:51:11.402Z,64.10
2023-05-09T09:53:44.739Z,64.00
2023-05-09T09:56:13.095Z,64.10
2023-05-09T09:58:41.480Z,64.10
2023-05-09T10:01:14.251Z,64.00
2023-05-09T10:03:45.037Z,63.80
2023-05-09T10:06:16.041Z,63.90
2023-05-09T10:08:48.808Z,63.70
2023-05-09T10:11:17.294Z,63.30
2023-05-09T10:13:46.598Z,63.30
2023-05-09T10:16:16.393Z,63.20
2023-05-09T10:18:46.220Z,63.10
2023-05-09T10:21:16.972Z,63.10
2023-05-09T10:23:49.821Z,62.80
2023-05-09T10:26:27.712Z,62.70
2023-05-09T10:28:59.640Z,62.80
2023-05-09T10:31:32.558Z,62.40
2023-05-09T10:34:06.278Z,62.10
2023-05-09T10:36:35.481Z,61.90
2023-05-09T10:39:03.923Z,61.60
2023-05-09T10:41:32.789Z,61.40
2023-05-09T10:44:01.692Z,61.30
2023-05-09T10:46:31.635Z,61.20
2023-05-09T10:49:01.320Z,61.00
2023-05-09T10:51:29.846Z,61.00
2023-05-09T10:53:58.380Z,60.70
2023-05-09T10:56:32.141Z,60.40
2023-05-09T10:59:01.476Z,60.20
2023-05-09T11:01:35.239Z,60.10
2023-05-09T11:04:10.873Z,59.50
2023-05-09T11:06:49.378Z,59.50
2023-05-09T11:09:36.423Z,59.30
2023-05-09T11:12:13.548Z,59.00
2023-05-09T11:14:45.023Z,59.00
2023-05-09T11:17:16.795Z,59.20
2023-05-09T11:20:05.463Z,59.00
2023-05-09T11:22:42.022Z,58.40
2023-05-09T11:25:13.336Z,58.00
2023-05-09T11:27:44.838Z,58.10
2023-05-09T11:30:15.531Z,57.90
2023-05-09T11:32:48.412Z,57.80
2023-05-09T11:35:19.517Z,57.30
2023-05-09T11:37:50.653Z,57.60
2023-05-09T11:40:21.299Z,57.60
2023-05-09T11:42:57.762Z,57.60
2023-05-09T11:45:32.322Z,57.70
2023-05-09T11:48:03.362Z,57.60
2023-05-09T11:50:31.958Z,57.60
2023-05-09T11:53:00.328Z,57.60
2023-05-09T11:55:30.126Z,57.50
2023-05-09T11:58:00.009Z,57.50
2023-05-09T12:00:28.778Z,57.70
2023-05-09T12:02:57.503Z,57.60
2023-05-09T12:05:27.782Z,57.90
2023-05-09T12:07:56.941Z,57.50
2023-05-09T12:10:25.763Z,57.50
2023-05-09T12:12:57.091Z,57.00
2023-05-09T12:15:26.264Z,57.30
2023-05-09T12:18:06.880Z,56.40
2023-05-09T12:20:44.679Z,55.90
2023-05-09T12:23:14.396Z,55.70
2023-05-09T12:25:49.915Z,56.20
2023-05-09T12:28:19.500Z,56.10
2023-05-09T12:30:48.182Z,56.40
2023-05-09T12:33:17.319Z,56.60
2023-05-09T12:35:49.606Z,56.50
2023-05-09T12:38:23.562Z,56.50
2023-05-09T12:41:05.172Z,56.70
2023-05-09T12:43:34.469Z,56.50
2023-05-09T12:46:05.572Z,56.90
2023-05-09T12:48:38.569Z,56.70
2023-05-09T12:51:08.975Z,56.50
2023-05-09T12:53:41.046Z,56.50
2023-05-09T12:56:16.053Z,56.50
2023-05-09T12:58:51.001Z,56.50
2023-05-09T13:01:20.453Z,56.50
2023-05-09T13:03:54.083Z,56.50
2023-05-09T13:06:24.352Z,56.50
2023-05-09T13:09:01.716Z,56.50
2023-05-09T13:11:30.853Z,56.20
2023-05-09T13:13:59.778Z,56.30
2023-05-09T13:16:28.173Z,56.30
2023-05-09T13:18:56.755Z,56.40
2023-05-09T13:21:26.848Z,56.40
2023-05-09T13:23:55.537Z,56.20
2023-05-09T13:26:24.253Z,56.30
2023-05-09T13:28:52.611Z,56.20
2023-05-09T13:31:21.452Z,56.30
2023-05-09T13:33:51.746Z,56.40
2023-05-09T13:36:20.772Z,56.30
2023-05-09T13:38:50.593Z,56.10
2023-05-09T13:41:22.542Z,55.90
2023-05-09T13:43:51.985Z,55.90
2023-05-09T13:46:20.549Z,55.90
2023-05-09T13:48:48.977Z,55.70
2023-05-09T13:51:17.444Z,55.60
2023-05-09T13:53:45.865Z,55.60
2023-05-09T13:56:16.256Z,55.70
2023-05-09T13:58:44.733Z,55.60
2023-05-09T14:01:13.136Z,55.60
2023-05-09T14:03:41.710Z,55.60
2023-05-09T14:06:12.991Z,55.60
2023-05-09T14:08:42.674Z,55.50
2023-05-09T14:11:11.139Z,55.50
2023-05-09T14:13:41.062Z,55.50
2023-05-09T14:16:09.665Z,55.40
2023-05-09T14:18:38.049Z,55.60
2023-05-09T14:21:07.935Z,55.40
2023-05-09T14:23:36.318Z,55.30
2023-05-09T14:26:04.794Z,55.40
2023-05-09T14:28:33.565Z,55.70
2023-05-09T14:31:07.013Z,56.10
2023-05-09T14:33:36.112Z,56.80
2023-05-09T14:36:06.165Z,56.70
2023-05-09T14:38:35.270Z,56.90
2023-05-09T14:41:03.867Z,57.30
2023-05-09T14:43:32.935Z,57.50
2023-05-09T14:46:01.398Z,58.00
2023-05-09T14:48:31.383Z,58.10
2023-05-09T14:50:59.984Z,58.40
2023-05-09T14:53:29.243Z,58.70
2023-05-09T14:55:57.661Z,58.80
2023-05-09T14:58:26.517Z,59.20
2023-05-09T15:00:54.937Z,59.30
2023-05-09T15:03:23.600Z,59.60
2023-05-09T15:05:54.135Z,59.80
2023-05-09T15:08:22.547Z,59.70
2023-05-09T15:10:51.353Z,59.70
2023-05-09T15:13:20.083Z,59.90
2023-05-09T15:15:48.934Z,60.00
2023-05-09T15:18:18.578Z,60.10
2023-05-09T15:20:47.059Z,60.40
2023-05-09T15:23:17.384Z,60.40
2023-05-09T15:25:46.292Z,60.40
2023-05-09T15:28:14.744Z,60.50
2023-05-09T15:30:43.295Z,60.50
2023-05-09T15:33:13.219Z,60.70
2023-05-09T15:35:41.682Z,60.70
2023-05-09T15:38:12.119Z,60.90
2023-05-09T15:40:42.533Z,60.90
2023-05-09T15:43:10.982Z,61.30
2023-05-09T15:45:45.237Z,61.40
2023-05-09T15:48:14.621Z,61.50
2023-05-09T15:50:44.261Z,61.70
2023-05-09T15:53:12.978Z,61.90
2023-05-09T15:55:44.676Z,61.90
2023-05-09T15:58:14.163Z,62.00
2023-05-09T16:00:42.743Z,62.20
2023-05-09T16:03:11.190Z,62.30
2023-05-09T16:05:41.057Z,62.40
2023-05-09T16:08:09.636Z,62.80
2023-05-09T16:10:38.172Z,63.10
2023-05-09T16:13:08.645Z,63.10
2023-05-09T16:15:37.198Z,63.40
2023-05-09T16:18:05.866Z,63.40
2023-05-09T16:20:34.248Z,63.40
2023-05-09T16:23:02.988Z,63.60
2023-05-09T16:25:32.822Z,63.70
2023-05-09T16:28:03.054Z,63.90
2023-05-09T16:30:33.243Z,63.80
2023-05-09T16:33:02.223Z,64.00
2023-05-09T16:35:30.731Z,64.10
2023-05-09T16:37:59.051Z,64.20
2023-05-09T16:40:28.609Z,64.40
2023-05-09T16:42:57.334Z,64.50
2023-05-09T16:45:26.000Z,64.50
2023-05-09T16:47:58.470Z,64.50
2023-05-09T16:50:28.803Z,64.60
2023-05-09T16:52:57.191Z,64.60
2023-05-09T16:55:25.585Z,64.60
2023-05-09T16:57:54.001Z,64.60
2023-05-09T17:00:23.578Z,64.80
2023-05-09T17:02:52.129Z,64.70
2023-05-09T17:05:22.463Z,64.50
2023-05-09T17:07:51.061Z,64.70
2023-05-09T17:10:19.619Z,64.50
2023-05-09T17:12:48.181Z,64.60
2023-05-09T17:15:16.702Z,64.40
2023-05-09T17:17:47.336Z,64.50
2023-05-09T17:20:16.341Z,64.50
2023-05-09T17:22:46.438Z,64.60
2023-05-09T17:25:14.764Z,64.70
2023-05-09T17:27:43.497Z,64.70
2023-05-09T17:30:12.693Z,64.80
2023-05-09T17:32:42.353Z,64.90
2023-05-09T17:35:12.247Z,65.00
2023-05-09T17:37:40.958Z,65.00
2023-05-09T17:40:11.797Z,65.00
2023-05-09T17:42:40.214Z,65.00
2023-05-09T17:45:11.727Z,64.90
2023-05-09T17:47:40.353Z,65.10
2023-05-09T17:50:10.510Z,65.10
2023-05-09T17:52:39.023Z,65.20
2023-05-09T17:55:08.754Z,65.20
2023-05-09T17:57:38.602Z,65.40
2023-05-09T18:00:09.323Z,65.20
2023-05-09T18:02:43.758Z,65.40
2023-05-09T18:05:12.544Z,65.20
2023-05-09T18:07:41.630Z,65.30
2023-05-09T18:10:11.743Z,65.30
2023-05-09T18:12:41.806Z,65.30
2023-05-09T18:15:11.170Z,65.40
2023-05-09T18:17:39.653Z,65.20
2023-05-09T18:20:09.878Z,65.30
2023-05-09T18:22:38.520Z,65.40
2023-05-09T18:25:08.057Z,65.40
2023-05-09T18:27:36.425Z,65.50
2023-05-09T18:30:08.026Z,65.50
2023-05-09T18:32:36.393Z,65.70
2023-05-09T18:35:05.607Z,65.50
2023-05-09T18:37:34.865Z,65.50
2023-05-09T18:40:05.248Z,65.50
2023-05-09T18:42:33.614Z,65.60
2023-05-09T18:45:05.895Z,65.40
2023-05-09T18:47:35.782Z,65.40
2023-05-09T18:50:04.837Z,65.50
2023-05-09T18:52:34.302Z,65.50
2023-05-09T18:55:02.811Z,65.60
2023-05-09T18:57:31.383Z,65.60
2023-05-09T19:00:00.691Z,65.60
2023-05-09T19:02:30.099Z,65.70
2023-05-09T19:05:05.643Z,65.60
2023-05-09T19:07:34.266Z,65.50
2023-05-09T19:10:03.958Z,65.30
2023-05-09T19:12:32.989Z,65.30
2023-05-09T19:15:01.411Z,65.20
2023-05-09T19:17:30.062Z,65.10
2023-05-09T19:20:00.054Z,65.00
2023-05-09T19:22:28.761Z,64.80
2023-05-09T19:24:59.078Z,64.70
2023-05-09T19:27:28.155Z,64.60
2023-05-09T19:29:56.489Z,64.60
2023-05-09T19:32:25.236Z,64.70
2023-05-09T19:34:53.702Z,64.70
2023-05-09T19:37:23.717Z,64.50
2023-05-09T19:39:52.886Z,64.50
2023-05-09T19:42:21.637Z,64.50
2023-05-09T19:44:52.380Z,64.60
2023-05-09T19:47:21.026Z,64.80
2023-05-09T19:49:49.683Z,64.80
2023-05-09T19:52:18.618Z,64.90
2023-05-09T19:54:49.452Z,65.00
2023-05-09T19:57:18.613Z,65.10
2023-05-09T19:59:47.599Z,65.30
2023-05-09T20:02:16.101Z,65.50
2023-05-09T20:04:49.633Z,65.50
2023-05-09T20:07:19.012Z,65.40
2023-05-09T20:09:48.762Z,65.50
2023-05-09T20:12:17.499Z,65.40
2023-05-09T20:14:45.910Z,65.40
2023-05-09T20:17:14.445Z,65.40
2023-05-09T20:19:42.982Z,65.40
2023-05-09T20:22:11.401Z,65.40
2023-05-09T20:24:39.783Z,65.20
2023-05-09T20:27:09.724Z,65.10
2023-05-09T20:29:38.105Z,65.10
2023-05-09T20:32:06.679Z,65.10
2023-05-09T20:34:35.189Z,65.10
2023-05-09T20:37:04.149Z,65.20
2023-05-09T20:39:32.587Z,65.20
2023-05-09T20:42:02.370Z,65.10
2023-05-09T20:44:32.650Z,65.20
2023-05-09T20:47:01.593Z,65.40
2023-05-09T20:49:29.945Z,65.30
2023-05-09T20:51:58.650Z,65.40
2023-05-09T20:54:27.651Z,65.40
2023-05-09T20:56:56.446Z,65.40
2023-05-09T20:59:24.750Z,65.40
2023-05-09T21:01:55.730Z,65.40
2023-05-09T21:04:24.182Z,65.20
2023-05-09T21:06:53.026Z,65.20
2023-05-09T21:09:21.449Z,65.20
2023-05-09T21:11:49.785Z,65.30
2023-05-09T21:14:18.512Z,65.40
2023-05-09T21:16:47.102Z,65.40
2023-05-09T21:19:17.096Z,65.30
2023-05-09T21:21:45.802Z,65.40
2023-05-09T21:24:14.516Z,65.50
2023-05-09T21:26:43.324Z,65.50
2023-05-09T21:29:11.724Z,65.40
2023-05-09T21:31:40.464Z,65.40
2023-05-09T21:34:10.854Z,65.40
2023-05-09T21:36:42.135Z,65.50
2023-05-09T21:39:11.738Z,65.40
2023-05-09T21:41:42.773Z,65.20
2023-05-09T21:44:12.334Z,65.20
2023-05-09T21:46:41.198Z,65.40
2023-05-09T21:49:09.596Z,65.40
2023-05-09T21:51:38.201Z,65.30
2023-05-09T21:54:08.119Z,65.40
2023-05-09T21:56:36.489Z,65.50
2023-05-09T21:59:04.968Z,65.40
2023-05-09T22:01:33.491Z,65.40
2023-05-09T22:04:02.033Z,66.30
2023-05-09T22:06:31.327Z,65.40
2023-05-09T22:08:59.808Z,65.40
2023-05-09T22:11:29.916Z,66.10
2023-05-09T22:13:58.499Z,65.10
2023-05-09T22:16:27.483Z,65.20
2023-05-09T22:18:56.225Z,65.10
2023-05-09T22:21:24.990Z,65.10
2023-05-09T22:23:53.370Z,65.00
2023-05-09T22:26:22.262Z,65.10
2023-05-09T22:28:52.040Z,65.00
2023-05-09T22:31:20.633Z,66.00
2023-05-09T22:33:49.387Z,65.00
2023-05-09T22:36:18.574Z,65.10
2023-05-09T22:38:47.266Z,65.00
2023-05-09T22:41:15.760Z,65.00
2023-05-09T22:43:45.066Z,65.00
2023-05-09T22:46:15.102Z,65.10
2023-05-09T22:48:43.906Z,65.10
2023-05-09T22:51:14.968Z,65.20
2023-05-09T22:53:43.708Z,65.20
2023-05-09T22:56:12.738Z,65.10
2023-05-09T22:58:41.161Z,65.20
2023-05-09T23:01:09.548Z,65.40
2023-05-09T23:03:39.353Z,65.40
2023-05-09T23:06:08.807Z,65.40
2023-05-09T23:08:37.306Z,65.40
2023-05-09T23:11:06.184Z,65.40
2023-05-09T23:13:34.549Z,65.40
2023-05-09T23:16:03.511Z,65.40
2023-05-09T23:18:32.056Z,65.50
2023-05-09T23:21:02.357Z,65.50
2023-05-09T23:23:30.725Z,65.60
2023-05-09T23:25:59.047Z,65.50
2023-05-09T23:28:27.369Z,65.50
2023-05-09T23:30:56.041Z,65.50
2023-05-09T23:33:24.370Z,65.60
2023-05-09T23:35:52.783Z,65.60
2023-05-09T23:38:22.794Z,65.70
2023-05-09T23:40:51.137Z,65.80
2023-05-09T23:43:19.627Z,65.70
2023-05-09T23:45:48.036Z,65.80
2023-05-09T23:48:16.495Z,65.80
2023-05-09T23:50:44.873Z,65.60
2023-05-09T23:53:13.545Z,65.60
2023-05-09T23:55:43.424Z,65.70
2023-05-09T23:58:11.855Z,65.80
